Airfield :
LOGIN :

Register | Disclaimer

   EN    FR    IT 

 










Legend :    VFR   Marginal VFR   IFR   Intensive IFR   Very Intensive IFR
Visi :
Ceiling :
>= 8 km
>= 3000ft
5 to 8 km
1000 to 3000 ft
1500m to 5 km
500 to 1000 ft
800 to 1500m
200 to 500 ft
< 800m
< 200 ft
Symbols :   Thunderstorms  Fog  Heavy snow  Heavy precipitations  Wind > 20 kt
SIGMETs :     Misc.  Thunderstorms  Icing  Turbulence  Mountain Waves  Volcanic Ashes







- Airport Elevation : 433 ft
- Download approach charts


LFOC - Chateaudun

CURRENT METAR :
  • 221030Z AUTO 21008KT 1900 -SN BR BKN003 OVC017 01/00 Q1007 TEMPO 8000 NSW BKN015

EXPIRED METARs :
  • 221000Z AUTO 21006KT 2000 -SN BR BKN003 OVC007 00/00 Q1007 TEMPO 1200 SN OVC005
  • 220930Z AUTO 19007KT 1100 1000 R28/1400D SN BR OVC005 00/00 Q1007 NOSIG
  • 220900Z AUTO 19008KT 2400 PL BR OVC006 00/00 Q1007 TEMPO 1200 SN
  • 220830Z AUTO 19009KT 2500 PL BR OVC005 00/M00 Q1008 TEMPO 1200 SN
  • 220800Z AUTO 19009KT 2800 PL BR BKN006 OVC037 M00/M01 Q1008 TEMPO 1200 SN OVC003

TAF TAF LFOC
Valid from the 22 at 09:00 until the 23 at 09:00 UTC


220800Z 2209/2309 19010KT 3500 BR BKN007 BKN012
TEMPO 2209/2212 1200 SN OVC005
PROB40
TEMPO 2212/2217 8000 NSW BKN015
TEMPO 2221/2307 1500 SHRASN BKN008 SCT020CB
No reported NOTAMs for that airfield.



MET'MAP, your aeronautical weather chart ! - Copyright ORBIFLY December 2007 - Disclaimer

ORBIFLY MET'MAP TEAM :

Programming & Development : Alexandra Zaïnal
Concept & Development : Baudouin d'Aumeries
Co-Development & Prog : Marc-Olivier Méhu
Technical & hardware support : Manuel Goepfert

Contact : metmap@orbifly.com




SOURCES & CREDITS :

   NOAA